Nearby METAR Reports

 

KALB - Albany, New York, USA
Distance from station: E 47mi, 75km
Updated: Mon, 23-Apr-2018 2:51am EDT
Clear
Clear
 Wind from N
Wind: N 3 mph , 6 km/h
Temperature: 36°F , 2°C
Dew Point: 25°F , -4°C
Humidity: 65%
Barometer: 30.44 inHg , 1030.8 hPa
Clouds: Clear
Visibility: 10 miles , 16 km
2018/04/23 06:51 KALB 230651Z 35003KT 10SM CLR 02/M04 A3044 RMK AO2 SLP308 T00221044
KSLK - Saranac Lake, New York, USA
Distance from station: N 110mi, 177km
Updated: Mon, 23-Apr-2018 2:51am EDT
Clear
Clear
 Wind from calm
Wind: Calm
Temperature: 19°F , -7°C
Dew Point: 18°F , -8°C
Humidity: 93%
Barometer: 30.39 inHg , 1029.1 hPa
Clouds: Clear
Visibility: 10 miles , 16 km
2018/04/23 06:51 KSLK 230651Z AUTO 00000KT 10SM CLR M07/M08 A3039 RMK AO2 SLP307 T10671083
 
KSYR - Syracuse, New York, USA
Distance from station: W 73mi, 117km
Updated: Mon, 23-Apr-2018 2:54am EDT
Few Clouds
Few Clouds
 Wind from SSE
Wind: SSE 3 mph , 6 km/h
Temperature: 34°F , 1°C
Dew Point: 23°F , -5°C
Humidity: 65%
Barometer: 30.42 inHg , 1030.1 hPa
Clouds: Few Clouds
Visibility: 10 miles , 16 km
Cloud details: Few Clouds 25000 ft
2018/04/23 06:54 KSYR 230654Z 15003KT 10SM FEW250 01/M05 A3042 RMK AO2 SLP301 T00111050 $
KBGM - Binghamton, New York, USA
Distance from station: SW 78mi, 126km
Updated: Mon, 23-Apr-2018 2:53am EDT
Clear
Clear
 Wind from ENE
Wind: ENE 3 mph , 6 km/h
Temperature: 39°F , 4°C
Dew Point: 14°F , -10°C
Humidity: 36%
Barometer: 30.40 inHg , 1029.5 hPa
Clouds: Clear
Visibility: 10 miles , 16 km
2018/04/23 06:53 KBGM 230653Z AUTO 06003KT 10SM CLR 04/M10 A3040 RMK AO2 SLP299 T00441100
 
KRME - Rome, New York, USA
Distance from station: WNW 43mi, 69km
Updated: Mon, 23-Apr-2018 2:53am EDT
Clear
Clear
 Wind from calm
Wind: Calm
Temperature: 28°F , -2°C
Dew Point: 21°F , -6°C
Humidity: 74%
Barometer: 30.44 inHg , 1030.8 hPa
Clouds: Clear
Visibility: 10 miles , 16 km
2018/04/23 06:53 KRME 230653Z AUTO 00000KT 10SM CLR M02/M06 A3044 RMK AO2 SLP310 T10171056
KJFK - New York, New York, USA
Distance from station: SSE 159mi, 256km
Updated: Mon, 23-Apr-2018 2:51am EDT
Clear
Clear
 Wind from SSW
Wind: SSW 5 mph , 7 km/h
Temperature: 43°F , 6°C
Wind Chill: 40°F , 4°C
Dew Point: 36°F , 2°C
Humidity: 76%
Barometer: 30.42 inHg , 1030.1 hPa
Clouds: Clear
Visibility: 10 miles , 16 km
2018/04/23 06:51 KJFK 230651Z 21004KT 10SM CLR 06/02 A3042 RMK AO2 SLP299 T00610017
 
KROC - Rochester, New York, USA
Distance from station: W 150mi, 242km
Updated: Mon, 23-Apr-2018 2:54am EDT
Clear
Clear
 Wind from SW
Wind: SW 3 mph , 6 km/h
Temperature: 37°F , 3°C
Dew Point: 28°F , -2°C
Humidity: 70%
Barometer: 30.40 inHg , 1029.5 hPa
Clouds: Clear
Visibility: 10 miles , 16 km
2018/04/23 06:54 KROC 230654Z 23003KT 10SM CLR 03/M02 A3040 RMK AO2 SLP302 T00281022
KART - Watertown, New York, USA
Distance from station: NNW 103mi, 166km
Updated: Mon, 23-Apr-2018 2:56am EDT
Clear
Clear
 Wind from E
Wind: E 6 mph , 9 km/h
Temperature: 27°F , -3°C
Wind Chill: 20°F , -7°C
Dew Point: 25°F , -4°C
Humidity: 93%
Barometer: 30.41 inHg , 1029.8 hPa
Clouds: Clear
Visibility: 10 miles , 16 km
2018/04/23 06:56 KART 230656Z AUTO 09005KT 10SM CLR M03/M04 A3041 RMK AO2 SLP302 T10281044
 
KELM - Elmira-Corning, New York, USA
Distance from station: SSW 121mi, 195km
Updated: Mon, 23-Apr-2018 2:53am EDT
Clear
Clear
 Wind from calm
Wind: Calm
Temperature: 28°F , -2°C
Dew Point: 21°F , -6°C
Humidity: 74%
Barometer: 30.42 inHg , 1030.1 hPa
Clouds: Clear
Visibility: 10 miles , 16 km
2018/04/23 06:53 KELM 230653Z AUTO 00000KT 10SM CLR M02/M06 A3042 RMK AO2 SLP308 T10171056
KJHW - Jamestown, New York, USA
Distance from station: SW 238mi, 383km
Updated: Mon, 23-Apr-2018 2:56am EDT
Clear
Clear
 Wind from SE
Wind: SE 5 mph , 7 km/h
Temperature: 45°F , 7°C
Wind Chill: 42°F , 6°C
Dew Point: 19°F , -7°C
Humidity: 37%
Barometer: 30.35 inHg , 1027.8 hPa
Clouds: Clear
Visibility: 10 miles , 16 km
2018/04/23 06:56 KJHW 230656Z AUTO 13004KT 10SM CLR 07/M07 A3035 RMK AO2 SLP287 T00721072
 
KMSS - Massena, New York, USA
Distance from station: N 141mi, 232km
Updated: Mon, 23-Apr-2018 2:53am EDT
Clear
Clear
 Wind from calm
Wind: Calm
Temperature: 28°F , -2°C
Dew Point: 23°F , -5°C
Humidity: 80%
Barometer: 30.42 inHg , 1030.1 hPa
Clouds: Clear
Visibility: 10 miles , 16 km
2018/04/23 06:53 KMSS 230653Z AUTO 00000KT 10SM CLR M02/M05 A3042 RMK AO2 SLP306 T10221050
KBUF - Buffalo, New York, USA
Distance from station: W 204mi, 328km
Updated: Mon, 23-Apr-2018 2:54am EDT
Clear
Clear
 Wind from ESE
Wind: ESE 6 mph , 9 km/h
Temperature: 43°F , 6°C
Wind Chill: 39°F , 4°C
Dew Point: 23°F , -5°C
Humidity: 46%
Barometer: 30.37 inHg , 1028.4 hPa
Clouds: Clear
Visibility: 10 miles , 16 km
2018/04/23 06:54 KBUF 230654Z 12005KT 10SM CLR 06/M05 A3037 RMK AO2 SLP288 T00561050